createdAt,value
2019-02-14T00:02:28.110Z,-0.60
2019-02-14T00:04:56.988Z,-0.40
2019-02-14T00:07:26.185Z,-0.40
2019-02-14T00:09:55.073Z,-0.40
2019-02-14T00:12:24.104Z,-0.40
2019-02-14T00:14:53.109Z,-0.40
2019-02-14T00:19:50.728Z,-0.40
2019-02-14T00:22:19.649Z,-0.40
2019-02-14T00:24:49.055Z,-0.60
2019-02-14T00:27:18.046Z,-0.70
2019-02-14T00:29:47.103Z,-0.60
2019-02-14T00:32:15.953Z,-0.80
2019-02-14T00:34:44.881Z,-0.90
2019-02-14T00:37:13.772Z,-1.00
2019-02-14T00:42:11.492Z,-1.10
2019-02-14T00:44:40.465Z,-1.10
2019-02-14T00:47:09.704Z,-1.10
2019-02-14T00:49:38.503Z,-1.20
2019-02-14T00:52:07.364Z,-1.10
2019-02-14T00:54:36.486Z,-1.10
2019-02-14T00:57:05.491Z,-1.00
2019-02-14T00:59:34.901Z,-1.40
2019-02-14T01:04:32.086Z,-1.10
2019-02-14T01:07:01.002Z,-1.10
2019-02-14T01:09:30.387Z,-1.20
2019-02-14T01:11:59.497Z,-1.10
2019-02-14T01:16:57.610Z,-0.80
2019-02-14T01:19:26.267Z,-0.80
2019-02-14T01:21:55.025Z,-1.00
2019-02-14T01:26:52.740Z,-1.00
2019-02-14T01:31:50.910Z,-1.10
2019-02-14T01:34:19.678Z,-1.20
2019-02-14T01:36:48.969Z,-1.20
2019-02-14T01:39:17.702Z,-1.30
2019-02-14T01:41:46.640Z,-1.30
2019-02-14T01:44:15.322Z,-1.00
2019-02-14T01:49:12.746Z,-1.30
2019-02-14T01:51:41.612Z,-1.30
2019-02-14T01:54:11.764Z,-1.30
2019-02-14T01:56:40.842Z,-1.30
2019-02-14T01:59:09.735Z,-1.30
2019-02-14T02:01:38.517Z,-1.20
2019-02-14T02:04:07.229Z,-1.20
2019-02-14T02:09:06.881Z,-1.40
2019-02-14T02:11:36.030Z,-1.50
2019-02-14T02:14:05.029Z,-1.50
2019-02-14T02:16:34.354Z,-1.60
2019-02-14T02:19:03.846Z,-1.50
2019-02-14T02:21:33.206Z,-1.50
2019-02-14T02:24:02.583Z,-1.60
2019-02-14T02:26:32.109Z,-1.60
2019-02-14T02:31:30.211Z,-1.60
2019-02-14T02:33:59.463Z,-1.70
2019-02-14T02:36:28.889Z,-1.70
2019-02-14T02:38:57.901Z,-1.70
2019-02-14T02:41:27.294Z,-1.70
2019-02-14T02:43:56.386Z,-1.70
2019-02-14T02:46:25.724Z,-1.70
2019-02-14T02:48:55.053Z,-1.80
2019-02-14T02:53:52.569Z,-1.90
2019-02-14T02:56:21.589Z,-1.90
2019-02-14T02:58:50.592Z,-2.00
2019-02-14T03:01:19.640Z,-2.00
2019-02-14T03:03:48.769Z,-2.10
2019-02-14T03:06:17.851Z,-1.90
2019-02-14T03:08:46.917Z,-1.90
2019-02-14T03:11:16.029Z,-1.90
2019-02-14T03:16:13.797Z,-2.00
2019-02-14T03:18:42.985Z,-2.10
2019-02-14T03:21:12.187Z,-2.00
2019-02-14T03:23:41.648Z,-2.00
2019-02-14T03:28:39.770Z,-2.00
2019-02-14T03:31:09.024Z,-2.10
2019-02-14T03:38:36.093Z,-1.80
2019-02-14T03:41:05.492Z,-1.70
2019-02-14T03:43:34.916Z,-1.70
2019-02-14T03:46:04.241Z,-1.60
2019-02-14T03:48:33.407Z,-1.80
2019-02-14T03:51:02.854Z,-1.80
2019-02-14T03:56:00.634Z,-1.90
2019-02-14T04:00:58.109Z,-1.90
2019-02-14T04:03:26.996Z,-1.60
2019-02-14T04:05:55.886Z,-1.00
2019-02-14T04:08:24.940Z,-1.40
2019-02-14T04:10:53.973Z,-1.30
2019-02-14T04:13:23.067Z,-1.30
2019-02-14T04:15:52.502Z,-1.40
2019-02-14T04:23:18.589Z,-1.50
2019-02-14T04:25:47.950Z,-1.70
2019-02-14T04:28:17.229Z,-1.70
2019-02-14T04:30:46.484Z,-1.80
2019-02-14T04:33:15.767Z,-1.80
2019-02-14T04:35:44.964Z,-1.80
2019-02-14T04:38:14.743Z,-1.70
2019-02-14T04:43:12.479Z,-1.90
2019-02-14T04:45:41.458Z,-1.90
2019-02-14T04:48:10.345Z,-1.70
2019-02-14T04:50:39.462Z,-1.80
2019-02-14T04:53:08.503Z,-1.60
2019-02-14T04:55:39.064Z,-1.60
2019-02-14T04:58:08.075Z,-1.60
2019-02-14T05:00:37.251Z,-1.50
2019-02-14T05:05:34.912Z,-1.60
2019-02-14T05:08:03.945Z,-1.50
2019-02-14T05:10:33.380Z,-1.60
2019-02-14T05:13:02.738Z,-1.60
2019-02-14T05:15:31.758Z,-1.70
2019-02-14T05:18:00.743Z,-1.80
2019-02-14T05:20:30.006Z,-1.80
2019-02-14T05:22:59.091Z,-1.90
2019-02-14T05:27:56.984Z,-2.00
2019-02-14T05:30:26.109Z,-2.10
2019-02-14T05:32:54.888Z,-2.10
2019-02-14T05:35:23.938Z,-2.20
2019-02-14T05:37:52.988Z,-2.10
2019-02-14T05:40:21.970Z,-2.10
2019-02-14T05:42:51.184Z,-2.10
2019-02-14T05:50:18.167Z,-2.10
2019-02-14T05:52:48.366Z,-2.10
2019-02-14T05:55:17.568Z,-2.30
2019-02-14T05:57:46.530Z,-2.30
2019-02-14T06:00:17.162Z,-2.30
2019-02-14T06:02:48.208Z,-2.10
2019-02-14T06:05:17.103Z,-2.10
2019-02-14T06:07:45.901Z,-1.90
2019-02-14T06:12:43.476Z,-1.90
2019-02-14T06:15:12.645Z,-1.90
2019-02-14T06:17:41.824Z,-1.90
2019-02-14T06:20:11.172Z,-1.80
2019-02-14T06:22:40.574Z,-1.80
2019-02-14T06:25:10.235Z,-1.80
2019-02-14T06:27:39.567Z,-1.70
2019-02-14T06:30:12.655Z,-1.50
2019-02-14T06:35:16.213Z,-1.50
2019-02-14T06:37:45.451Z,-1.50
2019-02-14T06:40:14.592Z,-1.40
2019-02-14T06:42:45.789Z,-1.40
2019-02-14T06:45:15.273Z,-1.20
2019-02-14T06:47:44.616Z,-1.30
2019-02-14T06:50:14.070Z,-1.10
2019-02-14T06:52:43.355Z,-1.00
2019-02-14T06:57:41.391Z,-1.00
2019-02-14T07:00:15.256Z,-0.90
2019-02-14T07:02:44.634Z,-0.90
2019-02-14T07:05:14.241Z,-1.30
2019-02-14T07:07:43.708Z,-1.10
2019-02-14T07:10:12.474Z,-1.10
2019-02-14T07:12:41.658Z,-1.20
2019-02-14T07:15:11.054Z,-1.30
2019-02-14T07:20:10.776Z,-1.40
2019-02-14T07:22:39.864Z,-1.40
2019-02-14T07:25:09.080Z,-1.40
2019-02-14T07:27:39.099Z,-1.20
2019-02-14T07:30:11.709Z,-1.20
2019-02-14T07:32:40.709Z,-1.00
2019-02-14T07:35:10.475Z,-0.90
2019-02-14T07:37:39.714Z,-0.70
2019-02-14T07:45:09.103Z,-0.30
2019-02-14T07:47:38.169Z,-0.10
2019-02-14T07:50:07.940Z,-0.10
2019-02-14T07:52:37.022Z,1.00
2019-02-14T07:55:07.005Z,0.10
2019-02-14T07:57:36.141Z,0.10
2019-02-14T08:00:06.376Z,0.30
2019-02-14T08:05:04.177Z,0.90
2019-02-14T08:07:35.877Z,1.10
2019-02-14T08:10:03.890Z,1.10
2019-02-14T08:12:33.111Z,1.20
2019-02-14T08:15:02.509Z,1.40
2019-02-14T08:17:31.698Z,1.40
2019-02-14T08:20:00.859Z,1.60
2019-02-14T08:22:29.928Z,1.80
2019-02-14T08:27:27.558Z,2.00
2019-02-14T08:29:56.497Z,2.40
2019-02-14T08:32:25.611Z,2.30
2019-02-14T08:34:55.127Z,2.40
2019-02-14T08:37:24.185Z,2.50
2019-02-14T08:39:53.365Z,2.80
2019-02-14T08:42:22.713Z,3.60
2019-02-14T08:44:51.778Z,3.90
2019-02-14T08:49:49.010Z,4.80
2019-02-14T08:52:17.924Z,4.90
2019-02-14T08:54:46.609Z,5.30
2019-02-14T08:57:15.533Z,5.80
2019-02-14T08:59:44.357Z,5.80
2019-02-14T09:02:13.185Z,5.80
2019-02-14T09:04:42.002Z,5.90
2019-02-14T09:07:11.402Z,6.60
2019-02-14T09:12:09.234Z,6.20
2019-02-14T09:14:38.452Z,6.30
2019-02-14T09:17:07.743Z,6.30
2019-02-14T09:19:37.423Z,6.70
2019-02-14T09:22:06.581Z,6.80
2019-02-14T09:24:36.064Z,6.90
2019-02-14T09:27:05.138Z,6.90
2019-02-14T09:29:34.474Z,7.40
2019-02-14T09:34:32.298Z,7.30
2019-02-14T09:37:01.542Z,7.50
2019-02-14T09:39:30.192Z,7.40
2019-02-14T09:41:59.040Z,7.60
2019-02-14T09:44:28.349Z,7.60
2019-02-14T09:46:57.122Z,7.60
2019-02-14T09:49:25.849Z,8.30
2019-02-14T09:54:23.430Z,8.60
2019-02-14T09:56:52.889Z,9.00
2019-02-14T10:01:50.879Z,9.00
2019-02-14T10:04:19.973Z,9.00
2019-02-14T10:06:49.305Z,9.10
2019-02-14T10:09:18.075Z,9.30
2019-02-14T10:11:47.005Z,9.70
2019-02-14T10:16:44.519Z,9.80
2019-02-14T10:19:13.552Z,9.60
2019-02-14T10:21:42.878Z,9.40
2019-02-14T10:24:11.982Z,9.60
2019-02-14T10:31:38.962Z,10.00
2019-02-14T10:34:08.264Z,10.60
2019-02-14T10:39:06.637Z,10.50
2019-02-14T10:41:36.382Z,10.60
2019-02-14T10:44:05.583Z,10.50
2019-02-14T10:46:35.726Z,10.60
2019-02-14T10:51:34.037Z,10.60
2019-02-14T10:54:03.101Z,10.60
2019-02-14T10:56:32.275Z,11.00
2019-02-14T11:01:30.665Z,11.00
2019-02-14T11:03:59.759Z,11.10
2019-02-14T11:06:28.693Z,11.00
2019-02-14T11:08:57.718Z,11.10
2019-02-14T11:11:26.656Z,10.90
2019-02-14T11:13:55.768Z,11.00
2019-02-14T11:16:24.894Z,10.90
2019-02-14T11:18:54.011Z,11.00
2019-02-14T11:26:20.859Z,11.00
2019-02-14T11:28:50.173Z,11.00
2019-02-14T11:31:19.317Z,11.00
2019-02-14T11:36:18.106Z,11.00
2019-02-14T11:38:47.222Z,11.00
2019-02-14T11:48:43.235Z,11.40
2019-02-14T11:51:12.531Z,11.30
2019-02-14T11:53:42.003Z,11.20
2019-02-14T11:56:13.329Z,11.20
2019-02-14T11:58:42.527Z,11.20
2019-02-14T12:01:11.771Z,11.40
2019-02-14T12:08:52.931Z,11.60
2019-02-14T12:11:13.022Z,11.60
2019-02-14T12:13:46.405Z,11.50
2019-02-14T12:16:16.029Z,11.50
2019-02-14T12:18:45.227Z,11.50
2019-02-14T12:21:14.534Z,11.60
2019-02-14T12:23:43.846Z,11.60
2019-02-14T12:26:13.223Z,11.20
2019-02-14T12:31:11.213Z,11.90
2019-02-14T12:33:40.689Z,11.70
2019-02-14T12:36:10.430Z,11.70
2019-02-14T12:38:40.155Z,11.70
2019-02-14T12:41:09.431Z,11.80
2019-02-14T12:43:38.611Z,11.90
2019-02-14T12:46:07.618Z,12.10
2019-02-14T12:48:36.807Z,12.00
2019-02-14T12:53:35.051Z,12.10
2019-02-14T12:56:03.801Z,12.10
2019-02-14T12:58:32.870Z,12.10
2019-02-14T13:01:02.184Z,12.10
2019-02-14T13:03:31.504Z,12.10
2019-02-14T13:06:00.761Z,12.00
2019-02-14T13:08:30.571Z,12.10
2019-02-14T13:10:59.739Z,12.10
2019-02-14T13:18:26.023Z,12.20
2019-02-14T13:20:58.596Z,12.10
2019-02-14T13:23:27.696Z,12.30
2019-02-14T13:25:59.993Z,12.30
2019-02-14T13:28:29.221Z,12.20
2019-02-14T13:30:58.671Z,12.20
2019-02-14T13:33:27.995Z,12.20
2019-02-14T13:38:25.713Z,12.50
2019-02-14T13:40:55.076Z,12.50
2019-02-14T13:43:24.374Z,12.50
2019-02-14T13:45:53.678Z,12.40
2019-02-14T13:48:22.968Z,12.50
2019-02-14T13:50:52.201Z,12.40
2019-02-14T13:53:21.263Z,12.50
2019-02-14T13:55:50.069Z,12.40
2019-02-14T14:00:47.884Z,12.30
2019-02-14T14:03:16.730Z,12.30
2019-02-14T14:05:46.823Z,12.30
2019-02-14T14:10:44.568Z,12.30
2019-02-14T14:13:14.652Z,12.30
2019-02-14T14:15:43.883Z,12.30
2019-02-14T14:18:13.080Z,12.20
2019-02-14T14:23:11.209Z,11.60
2019-02-14T14:25:41.319Z,12.00
2019-02-14T14:28:10.712Z,12.00
2019-02-14T14:30:39.933Z,11.80
2019-02-14T14:33:09.392Z,11.70
2019-02-14T14:35:38.553Z,11.80
2019-02-14T14:38:07.897Z,11.80
2019-02-14T14:40:37.168Z,11.90
2019-02-14T14:46:13.164Z,11.90
2019-02-14T14:48:43.381Z,11.90
2019-02-14T14:51:12.373Z,11.90
2019-02-14T14:53:41.590Z,11.90
2019-02-14T14:56:10.924Z,11.90
2019-02-14T14:58:40.204Z,12.00
2019-02-14T15:01:09.521Z,12.00
2019-02-14T15:03:40.615Z,11.90
2019-02-14T15:08:38.579Z,11.90
2019-02-14T15:11:07.735Z,11.90
2019-02-14T15:13:36.772Z,11.90
2019-02-14T15:16:06.035Z,11.90
2019-02-14T15:18:35.303Z,11.60
2019-02-14T15:21:04.306Z,11.70
2019-02-14T15:23:33.164Z,11.80
2019-02-14T15:26:03.047Z,11.70
2019-02-14T15:31:00.395Z,11.60
2019-02-14T15:33:29.344Z,11.60
2019-02-14T15:35:58.344Z,11.60
2019-02-14T15:38:27.420Z,11.60
2019-02-14T15:40:56.206Z,11.50
2019-02-14T15:43:25.095Z,11.40
2019-02-14T15:48:23.067Z,11.20
2019-02-14T15:53:22.695Z,11.00
2019-02-14T15:55:51.966Z,10.90
2019-02-14T15:58:21.510Z,10.90
2019-02-14T16:00:51.797Z,10.90
2019-02-14T16:03:21.658Z,10.70
2019-02-14T16:05:50.845Z,10.60
2019-02-14T16:08:22.262Z,10.60
2019-02-14T16:10:54.084Z,10.40
2019-02-14T16:15:50.346Z,10.20
2019-02-14T16:18:21.224Z,10.20
2019-02-14T16:20:50.657Z,10.00
2019-02-14T16:23:19.883Z,10.00
2019-02-14T16:25:50.150Z,9.90
2019-02-14T16:28:20.685Z,9.90
2019-02-14T16:30:49.857Z,9.90
2019-02-14T16:33:19.250Z,9.60
2019-02-14T16:38:23.435Z,9.40
2019-02-14T16:40:54.905Z,9.00
2019-02-14T16:43:24.159Z,8.90
2019-02-14T16:45:53.593Z,8.80
2019-02-14T16:48:22.889Z,8.40
2019-02-14T16:50:52.311Z,8.40
2019-02-14T16:53:21.712Z,8.10
2019-02-14T16:55:51.068Z,8.10
2019-02-14T16:58:20.198Z,7.80
2019-02-14T17:03:20.445Z,7.60
2019-02-14T17:05:49.818Z,7.50
2019-02-14T17:08:19.147Z,7.30
2019-02-14T17:10:48.365Z,7.10
2019-02-14T17:13:23.688Z,6.60
2019-02-14T17:15:56.184Z,6.40
2019-02-14T17:18:26.504Z,6.10
2019-02-14T17:20:55.932Z,6.10
2019-02-14T17:25:54.159Z,6.80
2019-02-14T17:28:24.039Z,7.70
2019-02-14T17:33:22.738Z,8.00
2019-02-14T17:35:51.763Z,7.80
2019-02-14T17:38:20.711Z,7.30
2019-02-14T17:40:55.040Z,7.00
2019-02-14T17:43:24.593Z,6.70
2019-02-14T17:48:23.179Z,6.00
2019-02-14T17:53:22.203Z,5.40
2019-02-14T17:55:51.626Z,5.10
2019-02-14T17:58:21.101Z,4.90
2019-02-14T18:00:50.455Z,5.00
2019-02-14T18:03:21.298Z,4.90
2019-02-14T18:05:52.436Z,4.70
2019-02-14T18:08:23.737Z,4.60
2019-02-14T18:13:28.895Z,4.60
2019-02-14T18:18:29.205Z,4.30
2019-02-14T18:20:58.562Z,4.30
2019-02-14T18:23:28.043Z,4.30
2019-02-14T18:25:57.658Z,4.30
2019-02-14T18:28:30.395Z,4.10
2019-02-14T18:30:59.130Z,3.90
2019-02-14T18:35:56.612Z,3.60
2019-02-14T18:38:25.554Z,3.60
2019-02-14T18:40:54.597Z,3.30
2019-02-14T18:43:26.740Z,3.30
2019-02-14T18:45:55.998Z,3.30
2019-02-14T18:48:25.439Z,3.10
2019-02-14T18:50:54.769Z,3.10
2019-02-14T18:53:25.409Z,3.10
2019-02-14T18:58:26.416Z,3.00
2019-02-14T19:00:58.782Z,3.00
2019-02-14T19:03:27.950Z,3.40
2019-02-14T19:05:57.747Z,3.10
2019-02-14T19:08:27.113Z,3.10
2019-02-14T19:10:58.744Z,3.10
2019-02-14T19:13:28.125Z,3.00
2019-02-14T19:15:57.690Z,2.90
2019-02-14T19:18:26.856Z,2.90
2019-02-14T19:23:27.977Z,3.00
2019-02-14T19:26:02.861Z,3.10
2019-02-14T19:35:59.476Z,3.10
2019-02-14T19:38:28.831Z,3.30
2019-02-14T19:40:57.761Z,3.30
2019-02-14T19:45:55.744Z,3.20
2019-02-14T19:48:24.847Z,3.10
2019-02-14T19:50:57.031Z,3.00
2019-02-14T19:55:55.466Z,2.80
2019-02-14T19:58:24.583Z,2.70
2019-02-14T20:00:53.853Z,2.60
2019-02-14T20:03:23.230Z,2.40
2019-02-14T20:08:20.845Z,2.30
2019-02-14T20:15:47.301Z,2.10
2019-02-14T20:18:16.539Z,2.20
2019-02-14T20:20:45.859Z,2.10
2019-02-14T20:23:14.818Z,2.20
2019-02-14T20:25:44.169Z,2.20
2019-02-14T20:30:41.765Z,2.40
2019-02-14T20:35:39.760Z,2.40
2019-02-14T20:38:09.342Z,2.30
2019-02-14T20:40:38.434Z,2.30
2019-02-14T20:43:07.574Z,2.30
2019-02-14T20:45:36.782Z,2.30
2019-02-14T20:50:34.630Z,2.00
2019-02-14T20:53:03.573Z,1.90
2019-02-14T20:55:32.427Z,1.90
2019-02-14T20:58:01.291Z,1.80
2019-02-14T21:00:32.307Z,1.70
2019-02-14T21:03:04.730Z,1.60
2019-02-14T21:05:34.220Z,1.60
2019-02-14T21:08:03.277Z,1.60
2019-02-14T21:15:33.582Z,1.80
2019-02-14T21:18:02.968Z,-0.50
2019-02-14T21:20:34.062Z,1.70
2019-02-14T21:25:32.466Z,1.80
2019-02-14T21:28:01.553Z,1.80
2019-02-14T21:30:35.000Z,1.90
2019-02-14T21:38:03.859Z,1.50
2019-02-14T21:40:33.370Z,1.40
2019-02-14T21:43:03.822Z,1.30
2019-02-14T21:45:34.854Z,-1.80
2019-02-14T21:48:04.721Z,1.10
2019-02-14T21:50:35.770Z,1.10
2019-02-14T21:53:05.631Z,1.10
2019-02-14T21:55:35.239Z,1.10
2019-02-14T22:03:04.611Z,1.00
2019-02-14T22:05:34.301Z,1.00
2019-02-14T22:08:03.846Z,0.80
2019-02-14T22:10:34.587Z,0.70
2019-02-14T22:15:32.951Z,0.60
2019-02-14T22:23:01.839Z,0.70
2019-02-14T22:25:31.286Z,0.80
2019-02-14T22:28:00.631Z,0.80
2019-02-14T22:30:30.005Z,0.80
2019-02-14T22:33:00.747Z,0.80
2019-02-14T22:37:58.558Z,0.80
2019-02-14T22:40:27.554Z,0.80
2019-02-14T22:45:25.109Z,1.00
2019-02-14T22:47:54.211Z,1.10
2019-02-14T22:50:23.054Z,1.00
2019-02-14T22:52:52.028Z,1.00
2019-02-14T22:55:20.891Z,1.10
2019-02-14T22:57:50.034Z,1.10
2019-02-14T23:02:59.278Z,0.90
2019-02-14T23:07:57.674Z,0.90
2019-02-14T23:10:28.221Z,0.80
2019-02-14T23:12:57.619Z,0.80
2019-02-14T23:20:24.872Z,0.80
2019-02-14T23:25:22.830Z,0.50
2019-02-14T23:30:21.145Z,0.30
2019-02-14T23:32:50.166Z,0.40
2019-02-14T23:35:18.822Z,0.40
2019-02-14T23:37:48.066Z,0.40
2019-02-14T23:40:17.311Z,0.40
2019-02-14T23:42:46.576Z,0.30
2019-02-14T23:45:15.916Z,0.30
2019-02-14T23:47:45.095Z,0.60
2019-02-14T23:52:42.759Z,0.20
2019-02-14T23:55:11.954Z,0.30
2019-02-14T23:57:41.059Z,0.30
